Decoded Metar for LIED (DECIMOMANNU in ITALY) (IATA:DCI) | Meteo·Mobile Aviation Weather
aviador You're here:

LIED Decoded Metar

DECIMOMANNU in ITALY
Report Time2020-02-27 15:55:00
UTC Time2020-02-27 16:34:01
Flight Rules vfr VFR
Wind240° at 09 kt
W.Decomp.*RWY 17: 3.2 kt HW 8.4 kt RCW
Visibility9999 m
Phenomena:N/A
Clouds:Few 025 Hf
Broken 060 Hf
Expected CloudBase > 2,000 ft AGL from Temp-Dew spread
Ceiling6,000 ft
Temp15°C (ISA 0)
Dew Point10°C (72% RH)
AAT11.8°C
QNH1016 hPa
Density Alt177 ft
Elevation92 ft
Report Wrong Elevation
Raw Report
LIED 271555Z 24009KT 9999 FEW025 BKN060 15/10 Q1016 RMK BKN VIS
MIN 9999 WIND THR35 24008KT WIND THR17 /////KT BLU=

Extra information for LIED:More info

Metar Taf Metar & Taf Last 4 Metars F.Rules Stats Wind Profile Meteogram Temp Stats Airport Information Weather charts Add Link Nearby VenuesMetar ALERT Operation Metar Decoded Social comments